Time;durP1;ratioP1;P1;durP2;ratioP2;P2;SDS_P1;SDS_P2;PMS_P1;PMS_P2;Temp;Humidity;BMP_temperature;BMP_pressure;BME280_temperature;BME280_humidity;BME280_pressure;Samples;Min_cycle;Max_cycle;Signal;HPM_P1;HPM_P2
2024/01/16 19:40:29;;;;;;;;;42.00;36.00;;;;;;;;5104803;27;13456;-68
2024/01/16 19:42:55;;;;;;;;;45.00;39.25;;;;;;;;5108389;28;11510;-68
2024/01/16 19:45:22;;;;;;;;;39.25;36.00;;;;;;;;5108361;28;11547;-68
2024/01/16 19:47:49;;;;;;;;;34.75;32.50;;;;;;;;5106568;28;8835;-68
2024/01/16 19:50:20;;;;;;;;;40.50;35.25;;;;;;;;5108233;28;11536;-68
2024/01/16 19:52:46;;;;;;;;;40.75;34.00;;;;;;;;5101903;28;12202;-66
2024/01/16 19:55:11;;;;;;;;;35.75;34.00;;;;;;;;5091373;28;11504;-67
2024/01/16 19:57:37;;;;;;;;;32.75;27.00;;;;;;;;5087726;28;11535;-69
2024/01/16 20:00:03;;;;;;;;;35.25;33.00;;;;;;;;5087754;28;8830;-70
2024/01/16 20:02:29;;;;;;;;;36.75;35.25;;;;;;;;5087530;28;8857;-71
2024/01/16 20:04:54;;;;;;;;;31.50;30.75;;;;;;;;5112988;27;11503;-75
2024/01/16 20:07:19;;;;;;;;;45.00;38.75;;;;;;;;5100680;28;8956;-73
2024/01/16 20:09:45;;;;;;;;;35.75;31.50;;;;;;;;5106564;28;8796;-70
2024/01/16 20:12:10;;;;;;;;;26.00;24.50;;;;;;;;5107422;28;8791;-73
2024/01/16 20:14:38;;;;;;;;;29.25;21.25;;;;;;;;5106078;28;8892;-73
2024/01/16 20:17:03;;;;;;;;;38.00;33.75;;;;;;;;5110017;28;9665;-72
2024/01/16 20:19:29;;;;;;;;;37.50;30.75;;;;;;;;5107348;28;11536;-72
2024/01/16 20:21:55;;;;;;;;;38.00;36.00;;;;;;;;5107837;28;8784;-72
2024/01/16 20:24:20;;;;;;;;;33.00;29.50;;;;;;;;5107195;28;11484;-73
2024/01/16 20:26:45;;;;;;;;;19.25;19.00;;;;;;;;5107646;28;8791;-73
2024/01/16 20:29:11;;;;;;;;;17.00;16.50;;;;;;;;5107402;28;9585;-72
2024/01/16 20:31:38;;;;;;;;;8.50;7.00;;;;;;;;5107406;28;8831;-72
2024/01/16 20:34:03;;;;;;;;;17.25;16.00;;;;;;;;5107349;28;11429;-71
2024/01/16 20:36:29;;;;;;;;;18.75;17.25;;;;;;;;5107257;28;11567;-71
2024/01/16 20:38:54;;;;;;;;;9.25;8.50;;;;;;;;5107014;28;8839;-73
2024/01/16 20:41:19;;;;;;;;;14.25;10.75;;;;;;;;5107275;28;8846;-73
2024/01/16 20:43:44;;;;;;;;;12.00;9.75;;;;;;;;5100659;28;8849;-70
2024/01/16 20:46:10;;;;;;;;;8.75;8.75;;;;;;;;5097473;28;8883;-69
2024/01/16 20:48:35;;;;;;;;;15.00;12.00;;;;;;;;5107123;28;8788;-69
2024/01/16 20:51:01;;;;;;;;;7.50;6.00;;;;;;;;5098101;28;8892;-69
2024/01/16 20:53:29;;;;;;;;;13.00;12.50;;;;;;;;5092982;28;8788;-71
2024/01/16 20:55:54;;;;;;;;;8.50;7.00;;;;;;;;5093598;28;8808;-75
2024/01/16 20:58:20;;;;;;;;;10.50;7.75;;;;;;;;5093098;28;11548;-70
2024/01/16 21:00:47;;;;;;;;;9.00;7.25;;;;;;;;5093343;28;9634;-71
2024/01/16 21:03:12;;;;;;;;;12.25;11.00;;;;;;;;5093296;28;8807;-73
2024/01/16 21:05:39;;;;;;;;;11.00;8.25;;;;;;;;5091923;28;11398;-72
2024/01/16 21:08:05;;;;;;;;;7.00;7.00;;;;;;;;5093029;28;9605;-70
2024/01/16 21:10:30;;;;;;;;;12.50;10.50;;;;;;;;5093255;28;11371;-70
2024/01/16 21:12:55;;;;;;;;;11.00;9.00;;;;;;;;5093100;28;8780;-71
2024/01/16 21:15:21;;;;;;;;;12.00;12.00;;;;;;;;5091663;28;8835;-70
2024/01/16 21:17:47;;;;;;;;;9.00;8.25;;;;;;;;5091557;28;8804;-72
2024/01/16 21:20:14;;;;;;;;;12.00;9.00;;;;;;;;5086390;28;8819;-72
2024/01/16 21:22:40;;;;;;;;;6.75;6.00;;;;;;;;5072467;28;12563;-70
2024/01/16 21:25:05;;;;;;;;;8.25;7.25;;;;;;;;5072481;28;11594;-72
2024/01/16 21:27:30;;;;;;;;;9.00;8.00;;;;;;;;5077741;28;8892;-72
2024/01/16 21:29:56;;;;;;;;;12.25;9.00;;;;;;;;5092085;28;8804;-72
2024/01/16 21:32:21;;;;;;;;;9.25;7.50;;;;;;;;5091917;28;8913;-74
2024/01/16 21:34:47;;;;;;;;;9.75;9.00;;;;;;;;5091893;28;8796;-72
2024/01/16 21:37:13;;;;;;;;;11.75;10.00;;;;;;;;5091741;28;8816;-72
2024/01/16 21:39:38;;;;;;;;;12.00;12.00;;;;;;;;5091324;28;9295;-70
2024/01/16 21:42:03;;;;;;;;;12.25;11.75;;;;;;;;5091872;28;8792;-72
2024/01/16 21:44:29;;;;;;;;;13.50;12.75;;;;;;;;5091609;28;8804;-72
2024/01/16 21:46:55;;;;;;;;;6.75;6.75;;;;;;;;5091711;28;8788;-72
2024/01/16 21:49:20;;;;;;;;;13.50;12.75;;;;;;;;5087921;28;9589;-72
2024/01/16 21:51:45;;;;;;;;;9.25;9.25;;;;;;;;5090085;28;8885;-73
2024/01/16 21:54:11;;;;;;;;;14.50;12.00;;;;;;;;5091176;28;8799;-73
2024/01/16 21:56:37;;;;;;;;;15.25;14.25;;;;;;;;5091407;28;9626;-70
2024/01/16 21:59:04;;;;;;;;;14.00;12.75;;;;;;;;5091391;28;8938;-70
2024/01/16 22:01:29;;;;;;;;;12.50;9.50;;;;;;;;5090772;28;11461;-70
2024/01/16 22:03:55;;;;;;;;;13.25;13.00;;;;;;;;5090165;28;11383;-70
2024/01/16 22:06:20;;;;;;;;;13.50;12.50;;;;;;;;5083154;28;8784;-70
2024/01/16 22:08:49;;;;;;;;;12.00;11.50;;;;;;;;5071606;28;8813;-70
2024/01/16 22:11:14;;;;;;;;;14.00;12.75;;;;;;;;5082200;28;8884;-70
2024/01/16 22:13:39;;;;;;;;;13.25;12.00;;;;;;;;5091406;28;11430;-70
2024/01/16 22:16:05;;;;;;;;;11.00;8.25;;;;;;;;5092838;28;8793;-72
2024/01/16 22:18:30;;;;;;;;;8.50;6.75;;;;;;;;5105264;28;9030;-74
2024/01/16 22:20:55;;;;;;;;;8.00;6.50;;;;;;;;5060574;28;9946;-74
2024/01/16 22:23:21;;;;;;;;;10.75;8.25;;;;;;;;5049213;28;10984;-73
2024/01/16 22:25:46;;;;;;;;;8.50;5.50;;;;;;;;5041890;28;8840;-73
2024/01/16 22:28:12;;;;;;;;;10.50;6.00;;;;;;;;5029377;28;9033;-74
2024/01/16 22:30:37;;;;;;;;;8.00;8.00;;;;;;;;5031677;28;8781;-73
2024/01/16 22:33:04;;;;;;;;;5.25;5.25;;;;;;;;5029735;28;8817;-74
2024/01/16 22:35:29;;;;;;;;;8.00;5.75;;;;;;;;5030713;28;8951;-72
2024/01/16 22:37:54;;;;;;;;;5.50;5.00;;;;;;;;5031038;28;11417;-72
2024/01/16 22:40:20;;;;;;;;;8.50;5.00;;;;;;;;5029990;28;8910;-73
2024/01/16 22:42:45;;;;;;;;;5.00;5.00;;;;;;;;5031069;28;8778;-72
2024/01/16 22:45:11;;;;;;;;;4.00;4.00;;;;;;;;5031406;28;8944;-75
2024/01/16 22:47:39;;;;;;;;;5.00;5.00;;;;;;;;5031245;28;8812;-72
2024/01/16 22:50:07;;;;;;;;;4.75;3.25;;;;;;;;5046750;28;11426;-72
2024/01/16 22:52:32;;;;;;;;;7.00;5.25;;;;;;;;5031236;28;11410;-71
2024/01/16 22:54:58;;;;;;;;;11.75;7.25;;;;;;;;5031136;28;11531;-72
2024/01/16 22:57:23;;;;;;;;;4.50;4.50;;;;;;;;5031325;28;8789;-72
2024/01/16 22:59:48;;;;;;;;;5.00;5.00;;;;;;;;5031088;28;8983;-72
2024/01/16 23:02:14;;;;;;;;;6.25;3.25;;;;;;;;5031241;28;8814;-72
2024/01/16 23:04:39;;;;;;;;;3.00;3.00;;;;;;;;5030917;28;8794;-72
2024/01/16 23:07:05;;;;;;;;;3.50;3.00;;;;;;;;5046468;28;8824;-72
2024/01/16 23:09:32;;;;;;;;;6.00;3.25;;;;;;;;5046438;28;8882;-72
2024/01/16 23:11:58;;;;;;;;;3.25;2.75;;;;;;;;5031015;28;8836;-72
2024/01/16 23:14:23;;;;;;;;;3.00;2.00;;;;;;;;5030631;28;11070;-71
2024/01/16 23:16:48;;;;;;;;;6.00;3.50;;;;;;;;5030877;28;9593;-72
2024/01/16 23:19:14;;;;;;;;;3.25;3.25;;;;;;;;5029407;28;8855;-72
2024/01/16 23:21:39;;;;;;;;;4.50;3.00;;;;;;;;5030905;28;8801;-72
2024/01/16 23:24:04;;;;;;;;;6.00;3.00;;;;;;;;5030881;28;8858;-72
2024/01/16 23:26:29;;;;;;;;;5.75;3.00;;;;;;;;5031240;28;8809;-72
2024/01/16 23:28:55;;;;;;;;;2.00;2.00;;;;;;;;5030880;28;8820;-72
2024/01/16 23:31:20;;;;;;;;;2.00;2.00;;;;;;;;5030853;28;8870;-72
2024/01/16 23:33:45;;;;;;;;;3.00;3.00;;;;;;;;5030536;28;8777;-72
2024/01/16 23:36:11;;;;;;;;;6.00;2.00;;;;;;;;5030733;28;8801;-72
2024/01/16 23:38:38;;;;;;;;;2.00;2.00;;;;;;;;5045905;28;8844;-72
2024/01/16 23:41:06;;;;;;;;;5.00;3.00;;;;;;;;5030712;28;8785;-72
2024/01/16 23:43:33;;;;;;;;;3.00;3.00;;;;;;;;5030705;28;11157;-72
2024/01/16 23:46:02;;;;;;;;;5.25;2.50;;;;;;;;5030576;28;11175;-72
2024/01/16 23:48:27;;;;;;;;;4.50;2.00;;;;;;;;5030390;28;11833;-72
